ADDS TAF Board (Experimental) INFO

IDs: Format: Expanded Condensed

Updated at: 1816 UTC 01 Oct 2014

KMEM - Memphis Intl, TN, US

Issued at 1720 UTC 01 Oct 2014
Time1754Z01/19Z01/20Z01/21Z01/22Z01/23Z02/00Z02/01Z02/02Z02/03Z02/04Z02/05Z02/06Z02/07Z
TypeOBSPRVLPRVLPRVLPRVLPRVLPRVLPRVLPRVLPRVLPRVLPRVLPRVLPRVL
VIS10>6>6>6>6>6>6>6>6>6>6>6>6>6
CIG----------------------------
CoverSCTSCTSCTSCTSCTSCTSCTSCTSCTSCTSCTSCTSCTSCT
FltCat--VFRVFRVFRVFRVFRVFRVFRVFRVFRVFRVFRVFRVFR
WX----------------------------
WDir200220220220220220220150150150150150150150
WSpd109999995555555
WGst----------------------------
R09/27
XWnd-10-7-7-7-7-7-7-4-4-4-4-4-4-4
HWnd-3-6-6-6-6-6-63333333
R18/36
XWnd-4-6-6-6-6-6-62222222
HWnd97777774444444
Raw TAF
KMEM 011720Z 0118/0218 22009KT P6SM SCT040
  FM020100 15005KT P6SM SCT100
  FM020900 17006KT P6SM BKN045 BKN100
  FM021400 19011KT P6SM VCSH BKN045


Raw METAR
KMEM 011754Z 20010KT 10SM FEW045 SCT110 31/18 A2993 RMK AO2 SLP130 T03110178 10311 20211 58005 $

TAF Board Legend

Hazard VFR MVFR IFR LIFR
Visibility (sm) >5 3≤X≤5 1≤X<3 <1
Ceiling (100 ft) >30 10≤X≤30 5≤X<10 <5
Wind Speed (kt) <10 10≤X<20 20≤X<30 ≥30
Wind Gust (kt) <15 15≤X<25 25≤X<35 ≥35
Weather No Wx Reported VCTS,-TS,-FZRA TS,FZRA +TS,+FZRA


Page loaded:  18:16 UTC  |   11:16 AM Pacific  |   12:16 PM Mountain  |   01:16 PM Central  |   02:16 PM Eastern

 

ADVISORIES

FORECASTS

FORECASTS

OBSERVATIONS

USER TOOLS

ABOUT US